sensor_id;sensor_type;location;lat;lon;timestamp;P1;durP1;ratioP1;P2;durP2;ratioP2
29634;SDS011;16557;54.762;56.068;2023-03-14T00:01:21;3.50;;;2.60;;
29634;SDS011;16557;54.762;56.068;2023-03-14T00:03:51;4.28;;;2.67;;
29634;SDS011;16557;54.762;56.068;2023-03-14T00:06:20;4.10;;;2.47;;
29634;SDS011;16557;54.762;56.068;2023-03-14T00:08:50;5.87;;;2.62;;
29634;SDS011;16557;54.762;56.068;2023-03-14T00:11:20;3.72;;;2.45;;
29634;SDS011;16557;54.762;56.068;2023-03-14T00:13:49;4.28;;;2.60;;
29634;SDS011;16557;54.762;56.068;2023-03-14T00:16:19;3.67;;;2.72;;
29634;SDS011;16557;54.762;56.068;2023-03-14T00:18:48;5.67;;;3.08;;
29634;SDS011;16557;54.762;56.068;2023-03-14T00:21:18;6.92;;;2.62;;
29634;SDS011;16557;54.762;56.068;2023-03-14T00:23:47;4.05;;;2.75;;
29634;SDS011;16557;54.762;56.068;2023-03-14T00:26:17;3.87;;;2.80;;
29634;SDS011;16557;54.762;56.068;2023-03-14T00:28:51;4.03;;;2.50;;
29634;SDS011;16557;54.762;56.068;2023-03-14T00:31:20;4.80;;;2.90;;
29634;SDS011;16557;54.762;56.068;2023-03-14T00:33:51;5.95;;;2.92;;
29634;SDS011;16557;54.762;56.068;2023-03-14T00:36:21;4.40;;;2.95;;
29634;SDS011;16557;54.762;56.068;2023-03-14T00:38:50;4.65;;;2.55;;
29634;SDS011;16557;54.762;56.068;2023-03-14T00:41:21;5.37;;;2.65;;
29634;SDS011;16557;54.762;56.068;2023-03-14T00:43:51;4.50;;;3.00;;
29634;SDS011;16557;54.762;56.068;2023-03-14T00:46:20;4.72;;;3.12;;
29634;SDS011;16557;54.762;56.068;2023-03-14T00:48:49;4.45;;;2.67;;
29634;SDS011;16557;54.762;56.068;2023-03-14T00:51:18;3.77;;;2.80;;
29634;SDS011;16557;54.762;56.068;2023-03-14T00:53:48;4.55;;;2.37;;
29634;SDS011;16557;54.762;56.068;2023-03-14T00:56:17;4.70;;;3.08;;
29634;SDS011;16557;54.762;56.068;2023-03-14T00:58:47;4.92;;;2.70;;
29634;SDS011;16557;54.762;56.068;2023-03-14T01:01:17;5.05;;;2.70;;
29634;SDS011;16557;54.762;56.068;2023-03-14T01:03:47;3.72;;;2.27;;
29634;SDS011;16557;54.762;56.068;2023-03-14T01:06:19;5.12;;;2.85;;
29634;SDS011;16557;54.762;56.068;2023-03-14T01:08:50;4.58;;;2.80;;
29634;SDS011;16557;54.762;56.068;2023-03-14T01:11:25;5.78;;;2.45;;
29634;SDS011;16557;54.762;56.068;2023-03-14T01:13:52;6.97;;;2.75;;
29634;SDS011;16557;54.762;56.068;2023-03-14T01:16:23;4.45;;;2.70;;
29634;SDS011;16557;54.762;56.068;2023-03-14T01:18:53;7.70;;;3.55;;
29634;SDS011;16557;54.762;56.068;2023-03-14T01:21:24;6.20;;;3.22;;
29634;SDS011;16557;54.762;56.068;2023-03-14T01:23:55;5.15;;;3.20;;
29634;SDS011;16557;54.762;56.068;2023-03-14T01:26:26;4.58;;;3.20;;
29634;SDS011;16557;54.762;56.068;2023-03-14T01:28:58;4.55;;;2.98;;
29634;SDS011;16557;54.762;56.068;2023-03-14T01:31:27;3.62;;;2.58;;
29634;SDS011;16557;54.762;56.068;2023-03-14T01:33:57;5.33;;;3.70;;
29634;SDS011;16557;54.762;56.068;2023-03-14T01:36:26;4.20;;;3.00;;
29634;SDS011;16557;54.762;56.068;2023-03-14T01:38:55;4.45;;;2.92;;
29634;SDS011;16557;54.762;56.068;2023-03-14T01:41:25;4.90;;;3.10;;
29634;SDS011;16557;54.762;56.068;2023-03-14T01:43:54;3.72;;;2.77;;
29634;SDS011;16557;54.762;56.068;2023-03-14T01:46:28;5.42;;;3.27;;
29634;SDS011;16557;54.762;56.068;2023-03-14T01:48:58;5.40;;;3.08;;
29634;SDS011;16557;54.762;56.068;2023-03-14T01:51:43;5.67;;;3.20;;
29634;SDS011;16557;54.762;56.068;2023-03-14T01:54:28;4.45;;;3.08;;
29634;SDS011;16557;54.762;56.068;2023-03-14T01:57:03;4.62;;;2.83;;
29634;SDS011;16557;54.762;56.068;2023-03-14T01:59:33;4.70;;;3.15;;
29634;SDS011;16557;54.762;56.068;2023-03-14T02:02:04;5.70;;;3.62;;
29634;SDS011;16557;54.762;56.068;2023-03-14T02:04:34;5.10;;;3.35;;
29634;SDS011;16557;54.762;56.068;2023-03-14T02:07:09;4.97;;;3.33;;
29634;SDS011;16557;54.762;56.068;2023-03-14T02:09:39;4.25;;;3.10;;
29634;SDS011;16557;54.762;56.068;2023-03-14T02:12:10;4.95;;;3.30;;
29634;SDS011;16557;54.762;56.068;2023-03-14T02:14:40;5.83;;;3.02;;
29634;SDS011;16557;54.762;56.068;2023-03-14T02:17:11;4.85;;;3.08;;
29634;SDS011;16557;54.762;56.068;2023-03-14T02:19:53;4.42;;;3.42;;
29634;SDS011;16557;54.762;56.068;2023-03-14T02:22:38;6.58;;;3.50;;
29634;SDS011;16557;54.762;56.068;2023-03-14T02:25:08;5.50;;;3.45;;
29634;SDS011;16557;54.762;56.068;2023-03-14T02:27:55;5.35;;;3.58;;
29634;SDS011;16557;54.762;56.068;2023-03-14T02:30:26;5.22;;;3.27;;
29634;SDS011;16557;54.762;56.068;2023-03-14T02:33:04;4.87;;;3.25;;
29634;SDS011;16557;54.762;56.068;2023-03-14T02:35:44;6.35;;;3.40;;
29634;SDS011;16557;54.762;56.068;2023-03-14T02:38:29;5.20;;;3.15;;
29634;SDS011;16557;54.762;56.068;2023-03-14T02:41:16;5.03;;;3.33;;
29634;SDS011;16557;54.762;56.068;2023-03-14T02:43:45;6.30;;;4.20;;
29634;SDS011;16557;54.762;56.068;2023-03-14T02:46:21;5.87;;;4.20;;
29634;SDS011;16557;54.762;56.068;2023-03-14T02:48:51;5.53;;;3.45;;
29634;SDS011;16557;54.762;56.068;2023-03-14T02:51:20;8.00;;;3.80;;
29634;SDS011;16557;54.762;56.068;2023-03-14T02:53:50;4.50;;;3.00;;
29634;SDS011;16557;54.762;56.068;2023-03-14T02:56:19;6.65;;;3.80;;
29634;SDS011;16557;54.762;56.068;2023-03-14T02:58:48;5.65;;;3.52;;
29634;SDS011;16557;54.762;56.068;2023-03-14T03:01:19;6.15;;;2.98;;
29634;SDS011;16557;54.762;56.068;2023-03-14T03:03:48;7.58;;;3.95;;
29634;SDS011;16557;54.762;56.068;2023-03-14T03:06:18;5.22;;;3.40;;
29634;SDS011;16557;54.762;56.068;2023-03-14T03:08:47;4.83;;;3.15;;
29634;SDS011;16557;54.762;56.068;2023-03-14T03:11:16;4.80;;;3.50;;
29634;SDS011;16557;54.762;56.068;2023-03-14T03:13:45;6.05;;;3.40;;
29634;SDS011;16557;54.762;56.068;2023-03-14T03:16:14;4.95;;;3.25;;
29634;SDS011;16557;54.762;56.068;2023-03-14T03:18:44;4.80;;;2.98;;
29634;SDS011;16557;54.762;56.068;2023-03-14T03:21:13;5.50;;;3.42;;
29634;SDS011;16557;54.762;56.068;2023-03-14T03:23:43;8.63;;;4.55;;
29634;SDS011;16557;54.762;56.068;2023-03-14T03:26:12;6.40;;;3.40;;
29634;SDS011;16557;54.762;56.068;2023-03-14T03:28:41;5.85;;;3.22;;
29634;SDS011;16557;54.762;56.068;2023-03-14T03:31:10;5.40;;;3.25;;
29634;SDS011;16557;54.762;56.068;2023-03-14T03:33:40;6.10;;;3.10;;
29634;SDS011;16557;54.762;56.068;2023-03-14T03:36:09;5.30;;;3.33;;
29634;SDS011;16557;54.762;56.068;2023-03-14T03:38:38;5.22;;;2.85;;
29634;SDS011;16557;54.762;56.068;2023-03-14T03:41:08;5.17;;;3.30;;
29634;SDS011;16557;54.762;56.068;2023-03-14T03:43:37;8.20;;;3.75;;
29634;SDS011;16557;54.762;56.068;2023-03-14T03:46:09;5.97;;;3.37;;
29634;SDS011;16557;54.762;56.068;2023-03-14T03:48:38;7.80;;;3.90;;
29634;SDS011;16557;54.762;56.068;2023-03-14T03:51:11;6.28;;;3.90;;
29634;SDS011;16557;54.762;56.068;2023-03-14T03:53:41;4.97;;;3.60;;
29634;SDS011;16557;54.762;56.068;2023-03-14T03:56:10;6.00;;;3.47;;
29634;SDS011;16557;54.762;56.068;2023-03-14T03:58:39;6.25;;;3.70;;
29634;SDS011;16557;54.762;56.068;2023-03-14T04:01:09;8.45;;;3.77;;
29634;SDS011;16557;54.762;56.068;2023-03-14T04:03:41;5.53;;;3.37;;
29634;SDS011;16557;54.762;56.068;2023-03-14T04:06:15;5.08;;;2.98;;
29634;SDS011;16557;54.762;56.068;2023-03-14T04:08:42;4.72;;;3.27;;
29634;SDS011;16557;54.762;56.068;2023-03-14T04:11:11;8.58;;;4.60;;
29634;SDS011;16557;54.762;56.068;2023-03-14T04:13:41;5.97;;;3.10;;
29634;SDS011;16557;54.762;56.068;2023-03-14T04:16:22;7.95;;;3.72;;
29634;SDS011;16557;54.762;56.068;2023-03-14T04:18:52;5.70;;;3.27;;
29634;SDS011;16557;54.762;56.068;2023-03-14T04:21:21;8.00;;;3.67;;
29634;SDS011;16557;54.762;56.068;2023-03-14T04:23:51;5.33;;;3.65;;
29634;SDS011;16557;54.762;56.068;2023-03-14T04:26:20;5.78;;;3.92;;
29634;SDS011;16557;54.762;56.068;2023-03-14T04:28:51;7.08;;;3.77;;
29634;SDS011;16557;54.762;56.068;2023-03-14T04:31:22;6.28;;;3.62;;
29634;SDS011;16557;54.762;56.068;2023-03-14T04:33:54;4.83;;;3.30;;
29634;SDS011;16557;54.762;56.068;2023-03-14T04:36:24;5.10;;;3.65;;
29634;SDS011;16557;54.762;56.068;2023-03-14T04:38:53;5.95;;;3.65;;
29634;SDS011;16557;54.762;56.068;2023-03-14T04:41:22;4.75;;;3.45;;
29634;SDS011;16557;54.762;56.068;2023-03-14T04:43:52;5.33;;;3.05;;
29634;SDS011;16557;54.762;56.068;2023-03-14T04:46:27;7.45;;;3.27;;
29634;SDS011;16557;54.762;56.068;2023-03-14T04:48:52;5.05;;;3.02;;
29634;SDS011;16557;54.762;56.068;2023-03-14T04:51:23;4.45;;;3.17;;
29634;SDS011;16557;54.762;56.068;2023-03-14T04:53:54;4.87;;;2.83;;
29634;SDS011;16557;54.762;56.068;2023-03-14T04:56:23;5.15;;;3.15;;
29634;SDS011;16557;54.762;56.068;2023-03-14T04:58:52;3.58;;;2.85;;
29634;SDS011;16557;54.762;56.068;2023-03-14T05:01:21;5.33;;;2.98;;
29634;SDS011;16557;54.762;56.068;2023-03-14T05:03:51;4.87;;;2.72;;
29634;SDS011;16557;54.762;56.068;2023-03-14T05:06:20;5.85;;;3.30;;
29634;SDS011;16557;54.762;56.068;2023-03-14T05:08:49;4.90;;;2.80;;
29634;SDS011;16557;54.762;56.068;2023-03-14T05:11:18;5.30;;;3.02;;
29634;SDS011;16557;54.762;56.068;2023-03-14T05:13:48;5.17;;;3.95;;
29634;SDS011;16557;54.762;56.068;2023-03-14T05:16:17;6.00;;;3.25;;
29634;SDS011;16557;54.762;56.068;2023-03-14T05:18:46;5.70;;;3.10;;
29634;SDS011;16557;54.762;56.068;2023-03-14T05:21:15;8.00;;;3.27;;
29634;SDS011;16557;54.762;56.068;2023-03-14T05:23:49;4.28;;;2.90;;
29634;SDS011;16557;54.762;56.068;2023-03-14T05:26:18;5.42;;;3.60;;
29634;SDS011;16557;54.762;56.068;2023-03-14T05:28:47;4.37;;;3.17;;
29634;SDS011;16557;54.762;56.068;2023-03-14T05:31:16;6.30;;;3.77;;
29634;SDS011;16557;54.762;56.068;2023-03-14T05:33:46;4.92;;;2.98;;
29634;SDS011;16557;54.762;56.068;2023-03-14T05:36:15;4.75;;;3.00;;
29634;SDS011;16557;54.762;56.068;2023-03-14T05:38:44;5.85;;;3.02;;
29634;SDS011;16557;54.762;56.068;2023-03-14T05:41:13;4.42;;;2.75;;
29634;SDS011;16557;54.762;56.068;2023-03-14T05:43:43;5.35;;;3.05;;
29634;SDS011;16557;54.762;56.068;2023-03-14T05:46:12;4.83;;;3.20;;
29634;SDS011;16557;54.762;56.068;2023-03-14T05:48:41;4.90;;;2.67;;
29634;SDS011;16557;54.762;56.068;2023-03-14T05:51:10;4.53;;;3.17;;
29634;SDS011;16557;54.762;56.068;2023-03-14T05:53:39;4.35;;;3.02;;
29634;SDS011;16557;54.762;56.068;2023-03-14T05:56:09;4.33;;;2.95;;
29634;SDS011;16557;54.762;56.068;2023-03-14T05:58:39;5.20;;;2.87;;
29634;SDS011;16557;54.762;56.068;2023-03-14T06:01:08;5.12;;;2.40;;
29634;SDS011;16557;54.762;56.068;2023-03-14T06:03:38;4.95;;;2.87;;
29634;SDS011;16557;54.762;56.068;2023-03-14T06:06:07;6.35;;;3.55;;
29634;SDS011;16557;54.762;56.068;2023-03-14T06:08:36;7.45;;;3.65;;
29634;SDS011;16557;54.762;56.068;2023-03-14T06:11:05;5.28;;;2.42;;
29634;SDS011;16557;54.762;56.068;2023-03-14T06:13:35;4.65;;;3.22;;
29634;SDS011;16557;54.762;56.068;2023-03-14T06:16:04;4.53;;;3.00;;
29634;SDS011;16557;54.762;56.068;2023-03-14T06:18:34;3.65;;;2.00;;
29634;SDS011;16557;54.762;56.068;2023-03-14T06:21:03;4.28;;;2.35;;
29634;SDS011;16557;54.762;56.068;2023-03-14T06:23:33;4.53;;;2.75;;
29634;SDS011;16557;54.762;56.068;2023-03-14T06:26:02;6.25;;;2.60;;
29634;SDS011;16557;54.762;56.068;2023-03-14T06:28:31;7.03;;;2.58;;
29634;SDS011;16557;54.762;56.068;2023-03-14T06:31:00;4.75;;;2.17;;
29634;SDS011;16557;54.762;56.068;2023-03-14T06:33:30;4.75;;;2.58;;
29634;SDS011;16557;54.762;56.068;2023-03-14T06:35:59;5.00;;;3.22;;
29634;SDS011;16557;54.762;56.068;2023-03-14T06:38:29;4.67;;;2.75;;
29634;SDS011;16557;54.762;56.068;2023-03-14T06:41:08;6.40;;;2.70;;
29634;SDS011;16557;54.762;56.068;2023-03-14T06:43:32;4.50;;;2.95;;
29634;SDS011;16557;54.762;56.068;2023-03-14T06:46:01;5.00;;;3.10;;
29634;SDS011;16557;54.762;56.068;2023-03-14T06:48:31;4.45;;;3.75;;
29634;SDS011;16557;54.762;56.068;2023-03-14T06:51:00;4.25;;;2.95;;
29634;SDS011;16557;54.762;56.068;2023-03-14T06:53:29;3.80;;;2.95;;
29634;SDS011;16557;54.762;56.068;2023-03-14T06:55:58;4.83;;;3.10;;
29634;SDS011;16557;54.762;56.068;2023-03-14T06:58:28;5.55;;;3.10;;
29634;SDS011;16557;54.762;56.068;2023-03-14T07:00:57;4.87;;;2.85;;
29634;SDS011;16557;54.762;56.068;2023-03-14T07:03:26;5.03;;;3.10;;
29634;SDS011;16557;54.762;56.068;2023-03-14T07:05:56;3.80;;;2.67;;
29634;SDS011;16557;54.762;56.068;2023-03-14T07:08:26;4.97;;;3.08;;
29634;SDS011;16557;54.762;56.068;2023-03-14T07:10:56;10.05;;;3.60;;
29634;SDS011;16557;54.762;56.068;2023-03-14T07:13:25;5.47;;;2.87;;
29634;SDS011;16557;54.762;56.068;2023-03-14T07:15:54;5.92;;;2.70;;
29634;SDS011;16557;54.762;56.068;2023-03-14T07:18:24;6.15;;;3.90;;
29634;SDS011;16557;54.762;56.068;2023-03-14T07:20:53;5.78;;;3.58;;
29634;SDS011;16557;54.762;56.068;2023-03-14T07:23:22;7.25;;;3.08;;
29634;SDS011;16557;54.762;56.068;2023-03-14T07:25:51;7.97;;;3.37;;
29634;SDS011;16557;54.762;56.068;2023-03-14T07:28:28;5.55;;;3.47;;
29634;SDS011;16557;54.762;56.068;2023-03-14T07:30:57;6.12;;;3.52;;
29634;SDS011;16557;54.762;56.068;2023-03-14T07:33:27;5.97;;;2.83;;
29634;SDS011;16557;54.762;56.068;2023-03-14T07:35:56;4.75;;;2.62;;
29634;SDS011;16557;54.762;56.068;2023-03-14T07:38:25;5.08;;;2.45;;
29634;SDS011;16557;54.762;56.068;2023-03-14T07:40:58;4.00;;;2.52;;
29634;SDS011;16557;54.762;56.068;2023-03-14T07:43:28;4.92;;;2.95;;
29634;SDS011;16557;54.762;56.068;2023-03-14T07:45:57;3.58;;;2.42;;
29634;SDS011;16557;54.762;56.068;2023-03-14T07:48:26;4.17;;;2.30;;
29634;SDS011;16557;54.762;56.068;2023-03-14T07:50:56;5.03;;;2.77;;
29634;SDS011;16557;54.762;56.068;2023-03-14T07:53:25;5.97;;;2.83;;
29634;SDS011;16557;54.762;56.068;2023-03-14T07:55:54;4.83;;;2.40;;
29634;SDS011;16557;54.762;56.068;2023-03-14T07:58:23;4.35;;;2.85;;
29634;SDS011;16557;54.762;56.068;2023-03-14T08:00:53;4.75;;;2.27;;
29634;SDS011;16557;54.762;56.068;2023-03-14T08:03:22;4.28;;;2.50;;
29634;SDS011;16557;54.762;56.068;2023-03-14T08:05:51;3.45;;;2.17;;
29634;SDS011;16557;54.762;56.068;2023-03-14T08:08:20;3.08;;;1.70;;
29634;SDS011;16557;54.762;56.068;2023-03-14T08:10:50;5.17;;;1.90;;
29634;SDS011;16557;54.762;56.068;2023-03-14T08:13:19;4.40;;;2.20;;
29634;SDS011;16557;54.762;56.068;2023-03-14T08:15:48;3.60;;;1.70;;
29634;SDS011;16557;54.762;56.068;2023-03-14T08:18:18;2.83;;;1.80;;
29634;SDS011;16557;54.762;56.068;2023-03-14T08:20:47;2.22;;;1.52;;
29634;SDS011;16557;54.762;56.068;2023-03-14T08:23:16;2.62;;;2.08;;
29634;SDS011;16557;54.762;56.068;2023-03-14T08:25:45;2.65;;;1.70;;
29634;SDS011;16557;54.762;56.068;2023-03-14T08:28:17;2.35;;;1.75;;
29634;SDS011;16557;54.762;56.068;2023-03-14T08:30:47;3.98;;;1.77;;
29634;SDS011;16557;54.762;56.068;2023-03-14T08:33:17;6.00;;;2.10;;
29634;SDS011;16557;54.762;56.068;2023-03-14T08:35:48;4.15;;;2.17;;
29634;SDS011;16557;54.762;56.068;2023-03-14T08:38:19;4.20;;;2.50;;
29634;SDS011;16557;54.762;56.068;2023-03-14T08:40:48;2.75;;;1.72;;
29634;SDS011;16557;54.762;56.068;2023-03-14T08:43:19;2.17;;;1.57;;
29634;SDS011;16557;54.762;56.068;2023-03-14T08:45:49;2.00;;;1.60;;
29634;SDS011;16557;54.762;56.068;2023-03-14T08:48:18;3.62;;;1.98;;
29634;SDS011;16557;54.762;56.068;2023-03-14T08:50:47;2.30;;;1.67;;
29634;SDS011;16557;54.762;56.068;2023-03-14T08:53:16;2.17;;;1.50;;
29634;SDS011;16557;54.762;56.068;2023-03-14T08:55:45;2.30;;;1.72;;
29634;SDS011;16557;54.762;56.068;2023-03-14T08:58:15;1.75;;;1.42;;
29634;SDS011;16557;54.762;56.068;2023-03-14T09:00:44;2.62;;;1.72;;
29634;SDS011;16557;54.762;56.068;2023-03-14T09:03:13;2.62;;;1.50;;
29634;SDS011;16557;54.762;56.068;2023-03-14T09:05:42;4.20;;;1.95;;
29634;SDS011;16557;54.762;56.068;2023-03-14T09:08:12;4.85;;;1.90;;
29634;SDS011;16557;54.762;56.068;2023-03-14T09:10:41;1.60;;;1.35;;
29634;SDS011;16557;54.762;56.068;2023-03-14T09:13:10;1.95;;;1.20;;
29634;SDS011;16557;54.762;56.068;2023-03-14T09:15:39;1.90;;;1.32;;
29634;SDS011;16557;54.762;56.068;2023-03-14T09:18:09;2.17;;;1.30;;
29634;SDS011;16557;54.762;56.068;2023-03-14T09:20:39;2.10;;;1.20;;
29634;SDS011;16557;54.762;56.068;2023-03-14T09:23:09;2.60;;;1.50;;
29634;SDS011;16557;54.762;56.068;2023-03-14T09:25:38;4.20;;;2.80;;
29634;SDS011;16557;54.762;56.068;2023-03-14T09:28:07;2.30;;;1.50;;
29634;SDS011;16557;54.762;56.068;2023-03-14T09:30:37;3.05;;;1.90;;
29634;SDS011;16557;54.762;56.068;2023-03-14T09:33:06;3.58;;;2.15;;
29634;SDS011;16557;54.762;56.068;2023-03-14T09:35:35;2.10;;;1.65;;
29634;SDS011;16557;54.762;56.068;2023-03-14T09:38:04;3.58;;;1.42;;
29634;SDS011;16557;54.762;56.068;2023-03-14T09:40:34;2.37;;;1.50;;
29634;SDS011;16557;54.762;56.068;2023-03-14T09:43:04;3.33;;;1.50;;
29634;SDS011;16557;54.762;56.068;2023-03-14T09:45:35;4.00;;;1.32;;
29634;SDS011;16557;54.762;56.068;2023-03-14T09:48:12;1.67;;;1.20;;
29634;SDS011;16557;54.762;56.068;2023-03-14T09:50:48;3.00;;;1.45;;
29634;SDS011;16557;54.762;56.068;2023-03-14T09:53:23;2.35;;;1.35;;
29634;SDS011;16557;54.762;56.068;2023-03-14T09:55:58;5.78;;;3.65;;
29634;SDS011;16557;54.762;56.068;2023-03-14T09:58:28;4.22;;;1.90;;
29634;SDS011;16557;54.762;56.068;2023-03-14T10:00:58;3.25;;;2.00;;
29634;SDS011;16557;54.762;56.068;2023-03-14T10:03:35;2.20;;;1.80;;
29634;SDS011;16557;54.762;56.068;2023-03-14T10:06:09;2.33;;;1.40;;
29634;SDS011;16557;54.762;56.068;2023-03-14T10:08:40;3.08;;;2.00;;
29634;SDS011;16557;54.762;56.068;2023-03-14T10:11:15;4.30;;;3.05;;
29634;SDS011;16557;54.762;56.068;2023-03-14T10:13:49;3.15;;;1.37;;
29634;SDS011;16557;54.762;56.068;2023-03-14T10:16:42;2.72;;;2.02;;
29634;SDS011;16557;54.762;56.068;2023-03-14T10:19:14;4.25;;;1.60;;
29634;SDS011;16557;54.762;56.068;2023-03-14T10:21:44;3.17;;;1.67;;
29634;SDS011;16557;54.762;56.068;2023-03-14T10:24:20;4.70;;;1.50;;
29634;SDS011;16557;54.762;56.068;2023-03-14T10:26:54;2.65;;;1.60;;
29634;SDS011;16557;54.762;56.068;2023-03-14T10:29:25;3.20;;;1.77;;
29634;SDS011;16557;54.762;56.068;2023-03-14T10:31:58;3.17;;;1.50;;
29634;SDS011;16557;54.762;56.068;2023-03-14T10:34:35;4.47;;;1.60;;
29634;SDS011;16557;54.762;56.068;2023-03-14T10:37:17;2.87;;;1.57;;
29634;SDS011;16557;54.762;56.068;2023-03-14T10:39:55;3.72;;;2.27;;
29634;SDS011;16557;54.762;56.068;2023-03-14T10:42:27;3.05;;;1.65;;
29634;SDS011;16557;54.762;56.068;2023-03-14T10:45:05;4.45;;;1.72;;
29634;SDS011;16557;54.762;56.068;2023-03-14T10:47:54;3.73;;;1.50;;
29634;SDS011;16557;54.762;56.068;2023-03-14T10:50:31;1.57;;;1.27;;
29634;SDS011;16557;54.762;56.068;2023-03-14T10:53:01;2.52;;;1.60;;
29634;SDS011;16557;54.762;56.068;2023-03-14T10:55:44;2.22;;;1.30;;
29634;SDS011;16557;54.762;56.068;2023-03-14T10:58:24;2.87;;;1.75;;
29634;SDS011;16557;54.762;56.068;2023-03-14T11:00:57;4.50;;;1.55;;
29634;SDS011;16557;54.762;56.068;2023-03-14T11:03:41;3.52;;;1.90;;
29634;SDS011;16557;54.762;56.068;2023-03-14T11:06:21;2.98;;;1.62;;
29634;SDS011;16557;54.762;56.068;2023-03-14T11:11:29;2.72;;;1.57;;
29634;SDS011;16557;54.762;56.068;2023-03-14T11:16:49;2.65;;;1.55;;
29634;SDS011;16557;54.762;56.068;2023-03-14T11:25:21;2.33;;;1.35;;
29634;SDS011;16557;54.762;56.068;2023-03-14T11:30:55;1.92;;;1.10;;
29634;SDS011;16557;54.762;56.068;2023-03-14T11:33:37;2.05;;;1.20;;
29634;SDS011;16557;54.762;56.068;2023-03-14T11:36:06;3.12;;;1.40;;
29634;SDS011;16557;54.762;56.068;2023-03-14T11:38:50;2.85;;;1.30;;
29634;SDS011;16557;54.762;56.068;2023-03-14T11:41:30;2.87;;;1.45;;
29634;SDS011;16557;54.762;56.068;2023-03-14T11:44:03;2.58;;;1.60;;
29634;SDS011;16557;54.762;56.068;2023-03-14T11:46:42;1.50;;;1.05;;
29634;SDS011;16557;54.762;56.068;2023-03-14T11:49:14;2.05;;;1.25;;
29634;SDS011;16557;54.762;56.068;2023-03-14T11:51:50;3.47;;;2.20;;
29634;SDS011;16557;54.762;56.068;2023-03-14T11:54:22;3.05;;;1.02;;
29634;SDS011;16557;54.762;56.068;2023-03-14T11:56:53;3.05;;;1.20;;
29634;SDS011;16557;54.762;56.068;2023-03-14T11:59:29;2.33;;;1.30;;
29634;SDS011;16557;54.762;56.068;2023-03-14T12:10:36;2.52;;;1.20;;
29634;SDS011;16557;54.762;56.068;2023-03-14T12:13:15;2.75;;;1.40;;
29634;SDS011;16557;54.762;56.068;2023-03-14T12:15:40;4.60;;;1.57;;
29634;SDS011;16557;54.762;56.068;2023-03-14T12:18:25;2.15;;;1.22;;
29634;SDS011;16557;54.762;56.068;2023-03-14T12:20:58;1.87;;;0.98;;
29634;SDS011;16557;54.762;56.068;2023-03-14T12:23:25;2.02;;;1.02;;
29634;SDS011;16557;54.762;56.068;2023-03-14T12:29:09;2.92;;;1.52;;
29634;SDS011;16557;54.762;56.068;2023-03-14T12:42:20;1.50;;;1.00;;
29634;SDS011;16557;54.762;56.068;2023-03-14T12:47:53;1.40;;;1.05;;
29634;SDS011;16557;54.762;56.068;2023-03-14T12:50:26;3.15;;;1.20;;
29634;SDS011;16557;54.762;56.068;2023-03-14T12:53:09;1.75;;;1.10;;
29634;SDS011;16557;54.762;56.068;2023-03-14T12:55:57;1.82;;;1.10;;
29634;SDS011;16557;54.762;56.068;2023-03-14T12:58:38;2.22;;;1.25;;
29634;SDS011;16557;54.762;56.068;2023-03-14T13:01:10;1.62;;;0.78;;
29634;SDS011;16557;54.762;56.068;2023-03-14T13:03:43;2.17;;;1.22;;
29634;SDS011;16557;54.762;56.068;2023-03-14T13:06:12;2.87;;;1.07;;
29634;SDS011;16557;54.762;56.068;2023-03-14T13:08:42;1.87;;;1.20;;
29634;SDS011;16557;54.762;56.068;2023-03-14T13:11:15;1.55;;;1.17;;
29634;SDS011;16557;54.762;56.068;2023-03-14T13:13:57;1.60;;;1.02;;
29634;SDS011;16557;54.762;56.068;2023-03-14T13:16:25;2.62;;;0.80;;
29634;SDS011;16557;54.762;56.068;2023-03-14T13:19:14;2.37;;;0.85;;
29634;SDS011;16557;54.762;56.068;2023-03-14T13:21:43;1.50;;;0.80;;
29634;SDS011;16557;54.762;56.068;2023-03-14T13:24:23;1.80;;;1.00;;
29634;SDS011;16557;54.762;56.068;2023-03-14T13:26:54;1.75;;;0.78;;
29634;SDS011;16557;54.762;56.068;2023-03-14T13:29:26;2.42;;;1.30;;
29634;SDS011;16557;54.762;56.068;2023-03-14T13:31:59;1.98;;;1.05;;
29634;SDS011;16557;54.762;56.068;2023-03-14T13:34:31;1.80;;;0.95;;
29634;SDS011;16557;54.762;56.068;2023-03-14T13:37:01;2.90;;;1.15;;
29634;SDS011;16557;54.762;56.068;2023-03-14T13:39:31;3.05;;;1.22;;
29634;SDS011;16557;54.762;56.068;2023-03-14T13:42:00;2.08;;;1.10;;
29634;SDS011;16557;54.762;56.068;2023-03-14T13:44:31;2.87;;;1.30;;
29634;SDS011;16557;54.762;56.068;2023-03-14T13:47:05;2.42;;;0.80;;
29634;SDS011;16557;54.762;56.068;2023-03-14T13:49:36;2.10;;;1.20;;
29634;SDS011;16557;54.762;56.068;2023-03-14T13:54:56;2.67;;;1.30;;
29634;SDS011;16557;54.762;56.068;2023-03-14T13:57:25;4.50;;;1.72;;
29634;SDS011;16557;54.762;56.068;2023-03-14T13:59:58;3.95;;;2.15;;
29634;SDS011;16557;54.762;56.068;2023-03-14T14:02:37;3.25;;;1.27;;
29634;SDS011;16557;54.762;56.068;2023-03-14T14:05:09;3.27;;;1.10;;
29634;SDS011;16557;54.762;56.068;2023-03-14T14:07:39;1.92;;;1.07;;
29634;SDS011;16557;54.762;56.068;2023-03-14T14:10:16;1.37;;;0.82;;
29634;SDS011;16557;54.762;56.068;2023-03-14T14:12:48;1.85;;;0.95;;
29634;SDS011;16557;54.762;56.068;2023-03-14T14:15:20;2.22;;;1.32;;
29634;SDS011;16557;54.762;56.068;2023-03-14T14:17:54;3.75;;;1.22;;
29634;SDS011;16557;54.762;56.068;2023-03-14T14:20:33;2.02;;;1.12;;
29634;SDS011;16557;54.762;56.068;2023-03-14T14:23:05;2.83;;;1.02;;
29634;SDS011;16557;54.762;56.068;2023-03-14T14:25:48;4.35;;;2.20;;
29634;SDS011;16557;54.762;56.068;2023-03-14T14:28:28;3.35;;;1.70;;
29634;SDS011;16557;54.762;56.068;2023-03-14T14:33:39;3.15;;;1.20;;
29634;SDS011;16557;54.762;56.068;2023-03-14T14:36:36;3.20;;;1.27;;
29634;SDS011;16557;54.762;56.068;2023-03-14T14:39:25;2.17;;;1.32;;
29634;SDS011;16557;54.762;56.068;2023-03-14T14:41:56;2.92;;;1.25;;
29634;SDS011;16557;54.762;56.068;2023-03-14T14:44:30;2.17;;;1.15;;
29634;SDS011;16557;54.762;56.068;2023-03-14T14:47:02;2.62;;;1.00;;
29634;SDS011;16557;54.762;56.068;2023-03-14T14:49:32;2.47;;;1.32;;
29634;SDS011;16557;54.762;56.068;2023-03-14T14:52:03;1.72;;;1.00;;
29634;SDS011;16557;54.762;56.068;2023-03-14T14:54:37;2.20;;;0.78;;
29634;SDS011;16557;54.762;56.068;2023-03-14T14:57:12;2.33;;;1.00;;
29634;SDS011;16557;54.762;56.068;2023-03-14T14:59:51;4.53;;;1.75;;
29634;SDS011;16557;54.762;56.068;2023-03-14T15:02:44;4.15;;;1.32;;
29634;SDS011;16557;54.762;56.068;2023-03-14T15:05:12;3.20;;;1.42;;
29634;SDS011;16557;54.762;56.068;2023-03-14T15:07:42;3.87;;;1.25;;
29634;SDS011;16557;54.762;56.068;2023-03-14T15:10:13;4.30;;;2.55;;
29634;SDS011;16557;54.762;56.068;2023-03-14T15:12:47;2.20;;;1.20;;
29634;SDS011;16557;54.762;56.068;2023-03-14T15:15:16;2.33;;;1.27;;
29634;SDS011;16557;54.762;56.068;2023-03-14T15:17:46;4.22;;;1.27;;
29634;SDS011;16557;54.762;56.068;2023-03-14T15:20:16;3.60;;;1.20;;
29634;SDS011;16557;54.762;56.068;2023-03-14T15:22:46;6.12;;;1.50;;
29634;SDS011;16557;54.762;56.068;2023-03-14T15:25:16;4.12;;;1.65;;
29634;SDS011;16557;54.762;56.068;2023-03-14T15:27:45;4.20;;;1.42;;
29634;SDS011;16557;54.762;56.068;2023-03-14T15:30:15;3.10;;;1.32;;
29634;SDS011;16557;54.762;56.068;2023-03-14T15:32:44;4.10;;;2.05;;
29634;SDS011;16557;54.762;56.068;2023-03-14T15:35:14;7.37;;;2.30;;
29634;SDS011;16557;54.762;56.068;2023-03-14T15:37:44;7.95;;;4.08;;
29634;SDS011;16557;54.762;56.068;2023-03-14T15:40:13;9.20;;;4.00;;
29634;SDS011;16557;54.762;56.068;2023-03-14T15:42:43;9.08;;;4.10;;
29634;SDS011;16557;54.762;56.068;2023-03-14T15:45:12;7.62;;;3.60;;